sensor_id;sensor_type;location;lat;lon;timestamp;pressure;altitude;pressure_sealevel;temperature;humidity
37304;BME280;23188;51.188;16.374;2023-08-20T00:03:56;100494.90;;;23.10;100.00
37304;BME280;23188;51.188;16.374;2023-08-20T00:08:00;100497.79;;;23.10;100.00
37304;BME280;23188;51.188;16.374;2023-08-20T00:12:04;100496.50;;;23.02;100.00
37304;BME280;23188;51.188;16.374;2023-08-20T00:16:09;100495.15;;;22.88;100.00
37304;BME280;23188;51.188;16.374;2023-08-20T00:20:13;100486.18;;;22.86;100.00
37304;BME280;23188;51.188;16.374;2023-08-20T00:24:18;100481.34;;;22.87;100.00
37304;BME280;23188;51.188;16.374;2023-08-20T00:28:21;100482.59;;;22.84;100.00
37304;BME280;23188;51.188;16.374;2023-08-20T00:32:25;100475.48;;;22.71;100.00
37304;BME280;23188;51.188;16.374;2023-08-20T00:36:29;100477.20;;;22.55;100.00
37304;BME280;23188;51.188;16.374;2023-08-20T00:40:33;100475.93;;;22.37;100.00
37304;BME280;23188;51.188;16.374;2023-08-20T00:44:37;100475.22;;;22.35;100.00
37304;BME280;23188;51.188;16.374;2023-08-20T00:48:41;100475.97;;;22.42;100.00
37304;BME280;23188;51.188;16.374;2023-08-20T00:52:45;100469.03;;;22.45;100.00
37304;BME280;23188;51.188;16.374;2023-08-20T00:56:49;100468.02;;;22.49;100.00
37304;BME280;23188;51.188;16.374;2023-08-20T01:00:53;100468.15;;;22.49;100.00
37304;BME280;23188;51.188;16.374;2023-08-20T01:04:57;100469.65;;;22.37;100.00
37304;BME280;23188;51.188;16.374;2023-08-20T01:13:32;100472.66;;;22.33;100.00
37304;BME280;23188;51.188;16.374;2023-08-20T01:17:35;100473.27;;;22.31;100.00
37304;BME280;23188;51.188;16.374;2023-08-20T01:26:16;100482.49;;;22.24;100.00
37304;BME280;23188;51.188;16.374;2023-08-20T01:30:25;100486.45;;;22.25;100.00
37304;BME280;23188;51.188;16.374;2023-08-20T01:34:30;100485.28;;;22.24;100.00
37304;BME280;23188;51.188;16.374;2023-08-20T01:38:34;100491.48;;;22.22;100.00
37304;BME280;23188;51.188;16.374;2023-08-20T01:42:38;100488.42;;;22.21;100.00
37304;BME280;23188;51.188;16.374;2023-08-20T01:46:42;100487.17;;;22.15;100.00
37304;BME280;23188;51.188;16.374;2023-08-20T01:50:46;100486.27;;;22.09;100.00
37304;BME280;23188;51.188;16.374;2023-08-20T01:54:49;100490.02;;;22.01;100.00
37304;BME280;23188;51.188;16.374;2023-08-20T01:58:53;100500.70;;;21.92;100.00
37304;BME280;23188;51.188;16.374;2023-08-20T02:02:56;100503.56;;;21.79;100.00
37304;BME280;23188;51.188;16.374;2023-08-20T02:07:00;100503.05;;;21.73;100.00
37304;BME280;23188;51.188;16.374;2023-08-20T02:11:04;100504.08;;;21.67;100.00
37304;BME280;23188;51.188;16.374;2023-08-20T02:15:08;100505.39;;;21.66;100.00
37304;BME280;23188;51.188;16.374;2023-08-20T02:19:12;100508.21;;;21.65;100.00
37304;BME280;23188;51.188;16.374;2023-08-20T02:23:17;100509.27;;;21.68;100.00
37304;BME280;23188;51.188;16.374;2023-08-20T02:27:20;100509.61;;;21.67;100.00
37304;BME280;23188;51.188;16.374;2023-08-20T02:31:24;100509.20;;;21.61;100.00
37304;BME280;23188;51.188;16.374;2023-08-20T02:35:30;100513.73;;;21.57;100.00
37304;BME280;23188;51.188;16.374;2023-08-20T02:39:33;100514.48;;;21.55;100.00
37304;BME280;23188;51.188;16.374;2023-08-20T02:43:37;100511.84;;;21.54;100.00
37304;BME280;23188;51.188;16.374;2023-08-20T02:47:43;100513.14;;;21.56;100.00
37304;BME280;23188;51.188;16.374;2023-08-20T02:51:47;100516.20;;;21.53;100.00
37304;BME280;23188;51.188;16.374;2023-08-20T02:55:51;100523.23;;;21.41;100.00
37304;BME280;23188;51.188;16.374;2023-08-20T02:59:55;100517.46;;;21.41;100.00
37304;BME280;23188;51.188;16.374;2023-08-20T03:03:59;100513.81;;;21.40;100.00
37304;BME280;23188;51.188;16.374;2023-08-20T03:08:03;100511.95;;;21.38;100.00
37304;BME280;23188;51.188;16.374;2023-08-20T03:12:10;100506.19;;;21.31;100.00
37304;BME280;23188;51.188;16.374;2023-08-20T03:16:16;100501.66;;;21.23;100.00
37304;BME280;23188;51.188;16.374;2023-08-20T03:20:19;100495.39;;;21.14;100.00
37304;BME280;23188;51.188;16.374;2023-08-20T03:24:22;100496.50;;;20.96;100.00
37304;BME280;23188;51.188;16.374;2023-08-20T03:28:26;100498.86;;;20.73;100.00
37304;BME280;23188;51.188;16.374;2023-08-20T03:32:30;100503.55;;;20.57;100.00
37304;BME280;23188;51.188;16.374;2023-08-20T03:36:33;100511.98;;;20.51;100.00
37304;BME280;23188;51.188;16.374;2023-08-20T03:40:37;100513.43;;;20.47;100.00
37304;BME280;23188;51.188;16.374;2023-08-20T03:44:41;100517.34;;;20.42;100.00
37304;BME280;23188;51.188;16.374;2023-08-20T03:48:44;100521.04;;;20.48;100.00
37304;BME280;23188;51.188;16.374;2023-08-20T03:52:48;100521.59;;;20.59;100.00
37304;BME280;23188;51.188;16.374;2023-08-20T03:56:51;100518.94;;;20.73;100.00
37304;BME280;23188;51.188;16.374;2023-08-20T04:00:55;100521.38;;;20.82;100.00
37304;BME280;23188;51.188;16.374;2023-08-20T04:04:59;100524.76;;;20.93;100.00
37304;BME280;23188;51.188;16.374;2023-08-20T04:09:03;100526.48;;;21.05;100.00
37304;BME280;23188;51.188;16.374;2023-08-20T04:13:07;100524.79;;;21.12;100.00
37304;BME280;23188;51.188;16.374;2023-08-20T04:17:10;100529.15;;;21.42;100.00
37304;BME280;23188;51.188;16.374;2023-08-20T04:21:14;100529.91;;;21.97;100.00
37304;BME280;23188;51.188;16.374;2023-08-20T04:25:17;100528.20;;;22.46;100.00
37304;BME280;23188;51.188;16.374;2023-08-20T04:29:21;100528.15;;;22.60;100.00
37304;BME280;23188;51.188;16.374;2023-08-20T04:33:24;100528.01;;;22.92;100.00
37304;BME280;23188;51.188;16.374;2023-08-20T04:37:28;100530.77;;;23.49;100.00
37304;BME280;23188;51.188;16.374;2023-08-20T04:41:32;100533.89;;;24.20;100.00
37304;BME280;23188;51.188;16.374;2023-08-20T04:45:36;100531.62;;;24.91;100.00
37304;BME280;23188;51.188;16.374;2023-08-20T04:49:40;100533.17;;;25.65;100.00
37304;BME280;23188;51.188;16.374;2023-08-20T04:53:44;100533.95;;;26.29;100.00
37304;BME280;23188;51.188;16.374;2023-08-20T04:57:48;100534.94;;;26.84;100.00
37304;BME280;23188;51.188;16.374;2023-08-20T05:01:52;100537.36;;;27.36;99.99
37304;BME280;23188;51.188;16.374;2023-08-20T05:05:56;100536.77;;;27.80;97.21
37304;BME280;23188;51.188;16.374;2023-08-20T05:10:00;100534.34;;;28.28;93.20
37304;BME280;23188;51.188;16.374;2023-08-20T05:14:04;100534.44;;;28.67;89.59
37304;BME280;23188;51.188;16.374;2023-08-20T05:18:08;100538.10;;;29.09;87.30
37304;BME280;23188;51.188;16.374;2023-08-20T05:22:12;100535.06;;;29.39;84.34
37304;BME280;23188;51.188;16.374;2023-08-20T05:26:16;100531.61;;;29.72;83.50
37304;BME280;23188;51.188;16.374;2023-08-20T05:30:20;100533.89;;;29.71;82.28
37304;BME280;23188;51.188;16.374;2023-08-20T05:34:24;100542.19;;;29.65;82.84
37304;BME280;23188;51.188;16.374;2023-08-20T05:38:28;100544.19;;;29.91;83.66
37304;BME280;23188;51.188;16.374;2023-08-20T05:42:32;100548.31;;;30.04;83.55
37304;BME280;23188;51.188;16.374;2023-08-20T05:46:39;100552.60;;;30.18;81.51
37304;BME280;23188;51.188;16.374;2023-08-20T05:50:49;100555.41;;;29.71;81.70
37304;BME280;23188;51.188;16.374;2023-08-20T05:54:53;100555.61;;;29.36;84.15
37304;BME280;23188;51.188;16.374;2023-08-20T05:58:57;100555.05;;;29.24;85.86
37304;BME280;23188;51.188;16.374;2023-08-20T06:03:02;100559.69;;;29.60;85.69
37304;BME280;23188;51.188;16.374;2023-08-20T06:07:06;100560.72;;;30.05;83.39
37304;BME280;23188;51.188;16.374;2023-08-20T06:11:10;100553.42;;;30.85;82.50
37304;BME280;23188;51.188;16.374;2023-08-20T06:15:15;100556.17;;;31.68;78.08
37304;BME280;23188;51.188;16.374;2023-08-20T06:19:19;100563.34;;;31.81;74.95
37304;BME280;23188;51.188;16.374;2023-08-20T06:23:23;100564.08;;;31.83;74.48
37304;BME280;23188;51.188;16.374;2023-08-20T06:27:45;100567.23;;;31.68;74.27
37304;BME280;23188;51.188;16.374;2023-08-20T06:31:50;100568.05;;;31.46;74.21
37304;BME280;23188;51.188;16.374;2023-08-20T06:35:54;100569.85;;;31.29;75.87
37304;BME280;23188;51.188;16.374;2023-08-20T06:39:58;100576.92;;;31.16;77.39
37304;BME280;23188;51.188;16.374;2023-08-20T06:44:02;100580.68;;;30.93;77.77
37304;BME280;23188;51.188;16.374;2023-08-20T06:48:06;100581.33;;;30.85;77.93
37304;BME280;23188;51.188;16.374;2023-08-20T06:52:11;100583.23;;;30.91;77.70
37304;BME280;23188;51.188;16.374;2023-08-20T06:56:15;100582.31;;;31.02;79.09
37304;BME280;23188;51.188;16.374;2023-08-20T07:00:19;100584.69;;;31.06;79.05
37304;BME280;23188;51.188;16.374;2023-08-20T07:04:24;100583.92;;;31.13;79.37
37304;BME280;23188;51.188;16.374;2023-08-20T07:08:32;100588.17;;;31.22;77.88
37304;BME280;23188;51.188;16.374;2023-08-20T07:13:11;100595.17;;;31.07;76.21
37304;BME280;23188;51.188;16.374;2023-08-20T07:17:16;100595.98;;;30.83;75.53
37304;BME280;23188;51.188;16.374;2023-08-20T07:21:20;100598.50;;;30.63;79.88
37304;BME280;23188;51.188;16.374;2023-08-20T07:25:36;100606.30;;;30.54;81.17
37304;BME280;23188;51.188;16.374;2023-08-20T07:29:41;100610.65;;;30.29;82.78
37304;BME280;23188;51.188;16.374;2023-08-20T07:33:49;100610.85;;;30.01;84.89
37304;BME280;23188;51.188;16.374;2023-08-20T07:37:52;100611.75;;;29.78;83.65
37304;BME280;23188;51.188;16.374;2023-08-20T07:41:55;100613.27;;;29.71;84.75
37304;BME280;23188;51.188;16.374;2023-08-20T07:46:24;100617.77;;;29.68;86.92
37304;BME280;23188;51.188;16.374;2023-08-20T07:50:27;100614.30;;;29.59;85.51
37304;BME280;23188;51.188;16.374;2023-08-20T07:54:30;100615.02;;;29.43;85.20
37304;BME280;23188;51.188;16.374;2023-08-20T07:58:34;100626.86;;;29.13;83.02
37304;BME280;23188;51.188;16.374;2023-08-20T08:02:37;100637.17;;;28.99;86.71
37304;BME280;23188;51.188;16.374;2023-08-20T08:06:40;100641.26;;;28.87;85.36
37304;BME280;23188;51.188;16.374;2023-08-20T08:10:43;100644.48;;;28.76;83.64
37304;BME280;23188;51.188;16.374;2023-08-20T08:14:47;100639.82;;;28.73;83.72
37304;BME280;23188;51.188;16.374;2023-08-20T08:18:50;100634.33;;;28.79;85.04
37304;BME280;23188;51.188;16.374;2023-08-20T08:22:53;100630.57;;;28.89;81.94
37304;BME280;23188;51.188;16.374;2023-08-20T08:26:56;100626.34;;;29.06;80.59
37304;BME280;23188;51.188;16.374;2023-08-20T08:30:59;100634.60;;;29.06;78.90
37304;BME280;23188;51.188;16.374;2023-08-20T08:35:03;100637.23;;;28.91;78.97
37304;BME280;23188;51.188;16.374;2023-08-20T08:39:06;100641.74;;;28.69;79.72
37304;BME280;23188;51.188;16.374;2023-08-20T08:43:10;100643.58;;;28.53;80.80
37304;BME280;23188;51.188;16.374;2023-08-20T08:47:21;100647.39;;;28.47;81.79
37304;BME280;23188;51.188;16.374;2023-08-20T08:51:24;100646.73;;;28.53;82.68
37304;BME280;23188;51.188;16.374;2023-08-20T08:55:28;100649.95;;;28.52;84.03
37304;BME280;23188;51.188;16.374;2023-08-20T08:59:32;100650.61;;;28.48;83.65
37304;BME280;23188;51.188;16.374;2023-08-20T09:03:35;100649.29;;;28.57;84.21
37304;BME280;23188;51.188;16.374;2023-08-20T09:12:34;100647.92;;;29.44;85.37
37304;BME280;23188;51.188;16.374;2023-08-20T09:16:37;100649.70;;;29.88;82.13
37304;BME280;23188;51.188;16.374;2023-08-20T09:20:40;100651.54;;;30.19;78.62
37304;BME280;23188;51.188;16.374;2023-08-20T09:24:49;100650.42;;;30.49;78.26
37304;BME280;23188;51.188;16.374;2023-08-20T09:28:55;100649.90;;;30.78;78.31
37304;BME280;23188;51.188;16.374;2023-08-20T09:33:10;100653.21;;;31.01;78.59
37304;BME280;23188;51.188;16.374;2023-08-20T09:37:15;100645.69;;;31.21;77.41
37304;BME280;23188;51.188;16.374;2023-08-20T09:41:18;100645.69;;;31.38;74.42
37304;BME280;23188;51.188;16.374;2023-08-20T09:45:48;100635.95;;;31.57;74.00
37304;BME280;23188;51.188;16.374;2023-08-20T09:49:53;100640.10;;;31.75;72.29
37304;BME280;23188;51.188;16.374;2023-08-20T09:54:08;100644.39;;;31.83;71.25
37304;BME280;23188;51.188;16.374;2023-08-20T09:58:14;100646.64;;;31.80;69.47
37304;BME280;23188;51.188;16.374;2023-08-20T10:02:22;100645.72;;;31.79;71.56
37304;BME280;23188;51.188;16.374;2023-08-20T10:06:26;100645.39;;;31.81;71.71
37304;BME280;23188;51.188;16.374;2023-08-20T10:10:30;100640.54;;;31.84;71.32
37304;BME280;23188;51.188;16.374;2023-08-20T10:14:34;100640.14;;;31.83;70.68
37304;BME280;23188;51.188;16.374;2023-08-20T10:19:01;100637.40;;;31.95;68.44
37304;BME280;23188;51.188;16.374;2023-08-20T10:23:04;100630.70;;;32.02;67.01
37304;BME280;23188;51.188;16.374;2023-08-20T10:27:08;100630.52;;;32.14;69.81
37304;BME280;23188;51.188;16.374;2023-08-20T10:31:12;100635.36;;;32.27;69.44
37304;BME280;23188;51.188;16.374;2023-08-20T10:35:26;100627.75;;;32.39;68.43
37304;BME280;23188;51.188;16.374;2023-08-20T10:39:30;100628.66;;;32.49;66.15
37304;BME280;23188;51.188;16.374;2023-08-20T10:43:37;100626.30;;;32.69;65.27
37304;BME280;23188;51.188;16.374;2023-08-20T10:47:41;100626.41;;;32.87;63.80
37304;BME280;23188;51.188;16.374;2023-08-20T10:51:47;100621.93;;;32.85;61.57
37304;BME280;23188;51.188;16.374;2023-08-20T11:01:14;100618.88;;;33.12;61.11
37304;BME280;23188;51.188;16.374;2023-08-20T11:05:20;100617.74;;;33.35;62.36
37304;BME280;23188;51.188;16.374;2023-08-20T11:09:56;100617.43;;;33.54;60.39
37304;BME280;23188;51.188;16.374;2023-08-20T11:14:06;100614.76;;;33.70;59.99
37304;BME280;23188;51.188;16.374;2023-08-20T11:18:11;100610.91;;;33.80;60.34
37304;BME280;23188;51.188;16.374;2023-08-20T11:22:23;100614.08;;;33.93;58.04
37304;BME280;23188;51.188;16.374;2023-08-20T11:26:26;100608.89;;;34.13;57.66
37304;BME280;23188;51.188;16.374;2023-08-20T11:30:29;100605.57;;;34.26;57.36
37304;BME280;23188;51.188;16.374;2023-08-20T11:39:36;100603.69;;;34.33;56.66
37304;BME280;23188;51.188;16.374;2023-08-20T11:43:53;100606.43;;;34.46;55.88
37304;BME280;23188;51.188;16.374;2023-08-20T11:47:56;100610.13;;;34.48;56.52
37304;BME280;23188;51.188;16.374;2023-08-20T11:52:00;100611.28;;;34.62;55.71
37304;BME280;23188;51.188;16.374;2023-08-20T11:56:03;100608.95;;;34.67;55.12
37304;BME280;23188;51.188;16.374;2023-08-20T12:00:24;100610.64;;;34.54;56.26
37304;BME280;23188;51.188;16.374;2023-08-20T12:04:30;100608.64;;;34.54;54.29
37304;BME280;23188;51.188;16.374;2023-08-20T12:11:54;100591.61;;;34.65;58.82
37304;BME280;23188;51.188;16.374;2023-08-20T12:16:01;100587.13;;;34.81;55.95
37304;BME280;23188;51.188;16.374;2023-08-20T12:20:05;100579.58;;;35.07;55.41
37304;BME280;23188;51.188;16.374;2023-08-20T12:24:16;100578.35;;;35.21;55.36
37304;BME280;23188;51.188;16.374;2023-08-20T12:28:19;100576.22;;;35.03;56.80
37304;BME280;23188;51.188;16.374;2023-08-20T12:32:23;100579.81;;;34.87;57.07
37304;BME280;23188;51.188;16.374;2023-08-20T12:36:27;100578.63;;;34.80;57.79
37304;BME280;23188;51.188;16.374;2023-08-20T12:40:30;100578.66;;;34.70;57.39
37304;BME280;23188;51.188;16.374;2023-08-20T12:44:34;100576.58;;;34.82;54.71
37304;BME280;23188;51.188;16.374;2023-08-20T12:48:37;100574.52;;;34.84;55.72
37304;BME280;23188;51.188;16.374;2023-08-20T12:52:41;100571.41;;;34.72;55.02
37304;BME280;23188;51.188;16.374;2023-08-20T12:56:46;100575.98;;;34.30;56.57
37304;BME280;23188;51.188;16.374;2023-08-20T13:00:51;100577.25;;;34.24;57.30
37304;BME280;23188;51.188;16.374;2023-08-20T13:04:57;100570.05;;;34.34;56.54
37304;BME280;23188;51.188;16.374;2023-08-20T13:09:03;100572.36;;;34.50;57.57
37304;BME280;23188;51.188;16.374;2023-08-20T13:13:10;100569.63;;;34.64;56.45
37304;BME280;23188;51.188;16.374;2023-08-20T13:17:15;100568.21;;;34.85;56.45
37304;BME280;23188;51.188;16.374;2023-08-20T13:21:19;100566.01;;;35.00;57.35
37304;BME280;23188;51.188;16.374;2023-08-20T13:25:25;100561.27;;;35.11;56.72
37304;BME280;23188;51.188;16.374;2023-08-20T13:29:29;100563.77;;;35.18;57.22
37304;BME280;23188;51.188;16.374;2023-08-20T13:33:33;100561.89;;;35.26;55.36
37304;BME280;23188;51.188;16.374;2023-08-20T13:37:37;100559.52;;;35.26;52.43
37304;BME280;23188;51.188;16.374;2023-08-20T13:41:42;100555.21;;;35.18;52.95
37304;BME280;23188;51.188;16.374;2023-08-20T13:45:46;100556.83;;;35.03;53.87
37304;BME280;23188;51.188;16.374;2023-08-20T13:49:51;100549.31;;;34.75;54.66
37304;BME280;23188;51.188;16.374;2023-08-20T13:53:56;100548.49;;;34.53;54.83
37304;BME280;23188;51.188;16.374;2023-08-20T13:58:00;100543.48;;;34.25;57.19
37304;BME280;23188;51.188;16.374;2023-08-20T14:02:05;100539.48;;;34.06;60.17
37304;BME280;23188;51.188;16.374;2023-08-20T14:06:10;100540.04;;;34.02;59.32
37304;BME280;23188;51.188;16.374;2023-08-20T14:10:15;100534.63;;;33.97;59.53
37304;BME280;23188;51.188;16.374;2023-08-20T14:14:20;100537.64;;;33.87;59.02
37304;BME280;23188;51.188;16.374;2023-08-20T14:18:24;100540.41;;;33.86;58.75
37304;BME280;23188;51.188;16.374;2023-08-20T14:22:30;100541.95;;;33.76;57.55
37304;BME280;23188;51.188;16.374;2023-08-20T14:26:34;100544.38;;;33.65;58.61
37304;BME280;23188;51.188;16.374;2023-08-20T14:30:39;100544.74;;;33.45;59.29
37304;BME280;23188;51.188;16.374;2023-08-20T14:34:43;100544.42;;;33.45;61.45
37304;BME280;23188;51.188;16.374;2023-08-20T14:38:48;100542.27;;;33.57;61.09
37304;BME280;23188;51.188;16.374;2023-08-20T14:42:53;100537.43;;;33.77;59.75
37304;BME280;23188;51.188;16.374;2023-08-20T14:46:57;100537.88;;;33.95;58.42
37304;BME280;23188;51.188;16.374;2023-08-20T14:51:02;100538.14;;;34.12;58.54
37304;BME280;23188;51.188;16.374;2023-08-20T14:55:07;100540.87;;;34.28;60.08
37304;BME280;23188;51.188;16.374;2023-08-20T14:59:13;100542.46;;;34.31;59.92
37304;BME280;23188;51.188;16.374;2023-08-20T15:03:18;100540.95;;;34.36;59.65
37304;BME280;23188;51.188;16.374;2023-08-20T15:07:22;100542.34;;;34.36;58.02
37304;BME280;23188;51.188;16.374;2023-08-20T15:11:27;100539.31;;;34.34;58.56
37304;BME280;23188;51.188;16.374;2023-08-20T15:15:31;100536.01;;;34.30;60.94
37304;BME280;23188;51.188;16.374;2023-08-20T15:19:36;100534.38;;;34.37;59.53
37304;BME280;23188;51.188;16.374;2023-08-20T15:23:40;100528.11;;;34.33;59.13
37304;BME280;23188;51.188;16.374;2023-08-20T15:27:44;100525.84;;;34.33;59.83
37304;BME280;23188;51.188;16.374;2023-08-20T15:31:47;100521.48;;;34.36;60.14
37304;BME280;23188;51.188;16.374;2023-08-20T15:35:56;100516.17;;;34.33;59.49
37304;BME280;23188;51.188;16.374;2023-08-20T15:40:00;100513.92;;;34.33;59.81
37304;BME280;23188;51.188;16.374;2023-08-20T15:44:04;100513.91;;;34.33;59.62
37304;BME280;23188;51.188;16.374;2023-08-20T15:48:08;100510.28;;;34.31;60.29
37304;BME280;23188;51.188;16.374;2023-08-20T15:52:13;100512.41;;;34.20;60.84
37304;BME280;23188;51.188;16.374;2023-08-20T15:56:17;100509.84;;;34.07;60.17
37304;BME280;23188;51.188;16.374;2023-08-20T16:00:21;100511.28;;;34.05;61.34
37304;BME280;23188;51.188;16.374;2023-08-20T16:04:24;100507.25;;;34.01;61.08
37304;BME280;23188;51.188;16.374;2023-08-20T16:08:27;100510.63;;;33.99;62.01
37304;BME280;23188;51.188;16.374;2023-08-20T16:12:31;100508.64;;;33.87;62.69
37304;BME280;23188;51.188;16.374;2023-08-20T16:16:35;100500.58;;;33.76;63.59
37304;BME280;23188;51.188;16.374;2023-08-20T16:20:38;100499.54;;;33.64;64.54
37304;BME280;23188;51.188;16.374;2023-08-20T16:24:42;100505.76;;;33.56;64.19
37304;BME280;23188;51.188;16.374;2023-08-20T16:28:46;100505.91;;;33.42;65.49
37304;BME280;23188;51.188;16.374;2023-08-20T16:32:50;100508.09;;;33.29;64.70
37304;BME280;23188;51.188;16.374;2023-08-20T16:36:54;100509.95;;;33.19;66.35
37304;BME280;23188;51.188;16.374;2023-08-20T16:41:01;100511.36;;;33.07;66.52
37304;BME280;23188;51.188;16.374;2023-08-20T16:45:06;100519.38;;;32.99;66.22
37304;BME280;23188;51.188;16.374;2023-08-20T16:49:10;100520.48;;;32.87;66.16
37304;BME280;23188;51.188;16.374;2023-08-20T16:53:13;100522.58;;;32.75;66.07
37304;BME280;23188;51.188;16.374;2023-08-20T16:57:20;100524.89;;;32.62;66.24
37304;BME280;23188;51.188;16.374;2023-08-20T17:01:24;100524.23;;;32.53;67.09
37304;BME280;23188;51.188;16.374;2023-08-20T17:05:29;100522.95;;;32.41;67.91
37304;BME280;23188;51.188;16.374;2023-08-20T17:09:33;100521.54;;;32.25;68.66
37304;BME280;23188;51.188;16.374;2023-08-20T17:13:38;100527.98;;;32.10;69.66
37304;BME280;23188;51.188;16.374;2023-08-20T17:17:43;100533.04;;;31.95;70.85
37304;BME280;23188;51.188;16.374;2023-08-20T17:21:47;100538.23;;;31.79;70.63
37304;BME280;23188;51.188;16.374;2023-08-20T17:25:55;100542.45;;;31.66;70.46
37304;BME280;23188;51.188;16.374;2023-08-20T17:30:01;100545.05;;;31.57;70.79
37304;BME280;23188;51.188;16.374;2023-08-20T17:34:11;100547.83;;;31.47;71.27
37304;BME280;23188;51.188;16.374;2023-08-20T17:38:41;100544.86;;;31.35;71.68
37304;BME280;23188;51.188;16.374;2023-08-20T17:42:46;100548.08;;;31.27;72.26
37304;BME280;23188;51.188;16.374;2023-08-20T17:46:51;100549.97;;;31.16;72.98
37304;BME280;23188;51.188;16.374;2023-08-20T17:50:55;100555.30;;;31.02;73.61
37304;BME280;23188;51.188;16.374;2023-08-20T19:45:18;100637.56;;;28.17;93.14
37304;BME280;23188;51.188;16.374;2023-08-20T19:49:21;100638.03;;;28.14;93.55
37304;BME280;23188;51.188;16.374;2023-08-20T19:53:24;100635.05;;;28.10;94.35
37304;BME280;23188;51.188;16.374;2023-08-20T19:57:29;100635.34;;;28.02;94.73
37304;BME280;23188;51.188;16.374;2023-08-20T20:01:57;100645.73;;;27.93;95.40
37304;BME280;23188;51.188;16.374;2023-08-20T20:06:00;100652.71;;;27.84;95.04
37304;BME280;23188;51.188;16.374;2023-08-20T20:10:04;100654.19;;;27.72;94.78
37304;BME280;23188;51.188;16.374;2023-08-20T20:14:11;100656.10;;;27.56;94.65
37304;BME280;23188;51.188;16.374;2023-08-20T20:18:16;100655.09;;;27.35;92.83
37304;BME280;23188;51.188;16.374;2023-08-20T20:22:24;100666.52;;;27.13;93.50
37304;BME280;23188;51.188;16.374;2023-08-20T20:26:29;100673.13;;;26.91;95.73
37304;BME280;23188;51.188;16.374;2023-08-20T20:30:33;100668.73;;;26.80;99.05
37304;BME280;23188;51.188;16.374;2023-08-20T20:34:37;100676.89;;;26.77;99.88
37304;BME280;23188;51.188;16.374;2023-08-20T20:39:07;100672.48;;;26.81;100.00
37304;BME280;23188;51.188;16.374;2023-08-20T20:43:13;100670.22;;;26.88;100.00
37304;BME280;23188;51.188;16.374;2023-08-20T20:47:16;100669.83;;;26.95;100.00
37304;BME280;23188;51.188;16.374;2023-08-20T20:51:19;100665.77;;;26.97;100.00
37304;BME280;23188;51.188;16.374;2023-08-20T20:55:22;100665.88;;;26.98;100.00
37304;BME280;23188;51.188;16.374;2023-08-20T20:59:26;100666.33;;;26.97;100.00
37304;BME280;23188;51.188;16.374;2023-08-20T21:03:29;100665.11;;;26.92;100.00
37304;BME280;23188;51.188;16.374;2023-08-20T21:07:32;100662.98;;;26.83;100.00
37304;BME280;23188;51.188;16.374;2023-08-20T21:11:45;100666.75;;;26.79;100.00
37304;BME280;23188;51.188;16.374;2023-08-20T21:15:48;100676.34;;;26.74;100.00
37304;BME280;23188;51.188;16.374;2023-08-20T21:19:51;100676.09;;;26.64;100.00
37304;BME280;23188;51.188;16.374;2023-08-20T21:24:00;100671.21;;;26.59;100.00
37304;BME280;23188;51.188;16.374;2023-08-20T21:28:04;100668.46;;;26.58;100.00
37304;BME280;23188;51.188;16.374;2023-08-20T21:32:08;100672.31;;;26.55;100.00
37304;BME280;23188;51.188;16.374;2023-08-20T21:36:14;100677.04;;;26.50;100.00
37304;BME280;23188;51.188;16.374;2023-08-20T21:40:18;100675.02;;;26.46;100.00
37304;BME280;23188;51.188;16.374;2023-08-20T21:44:21;100669.95;;;26.45;100.00
37304;BME280;23188;51.188;16.374;2023-08-20T21:48:23;100676.13;;;26.38;100.00
37304;BME280;23188;51.188;16.374;2023-08-20T21:52:26;100675.63;;;26.31;100.00
37304;BME280;23188;51.188;16.374;2023-08-20T21:56:29;100680.34;;;26.24;100.00
37304;BME280;23188;51.188;16.374;2023-08-20T22:00:32;100676.91;;;26.16;100.00
37304;BME280;23188;51.188;16.374;2023-08-20T22:04:36;100675.11;;;26.07;100.00
37304;BME280;23188;51.188;16.374;2023-08-20T22:08:40;100677.40;;;25.97;100.00
37304;BME280;23188;51.188;16.374;2023-08-20T22:12:44;100674.93;;;25.86;100.00
37304;BME280;23188;51.188;16.374;2023-08-20T22:16:47;100672.48;;;25.88;100.00
37304;BME280;23188;51.188;16.374;2023-08-20T22:21:16;100684.67;;;25.83;100.00
37304;BME280;23188;51.188;16.374;2023-08-20T22:25:20;100687.69;;;25.77;100.00
37304;BME280;23188;51.188;16.374;2023-08-20T22:29:54;100685.95;;;25.70;100.00
37304;BME280;23188;51.188;16.374;2023-08-20T22:33:58;100686.41;;;25.61;100.00
37304;BME280;23188;51.188;16.374;2023-08-20T22:38:07;100681.50;;;25.64;100.00
37304;BME280;23188;51.188;16.374;2023-08-20T22:42:16;100684.84;;;25.67;100.00
37304;BME280;23188;51.188;16.374;2023-08-20T22:46:19;100693.73;;;25.63;100.00
37304;BME280;23188;51.188;16.374;2023-08-20T22:50:22;100688.79;;;25.53;100.00
37304;BME280;23188;51.188;16.374;2023-08-20T22:54:28;100684.24;;;25.41;100.00
37304;BME280;23188;51.188;16.374;2023-08-20T22:58:33;100683.77;;;25.32;100.00
37304;BME280;23188;51.188;16.374;2023-08-20T23:02:40;100682.22;;;25.19;100.00
37304;BME280;23188;51.188;16.374;2023-08-20T23:06:43;100678.93;;;25.10;100.00
37304;BME280;23188;51.188;16.374;2023-08-20T23:15:39;100681.91;;;24.99;100.00
37304;BME280;23188;51.188;16.374;2023-08-20T23:19:48;100689.46;;;24.92;100.00
37304;BME280;23188;51.188;16.374;2023-08-20T23:23:57;100683.73;;;24.88;100.00